createdAt,value
2023-01-31T00:01:23.667Z,3.88
2023-01-31T00:03:57.844Z,4.53
2023-01-31T00:06:27.576Z,3.08
2023-01-31T00:08:55.116Z,2.67
2023-01-31T00:11:27.707Z,2.67
2023-01-31T00:13:55.005Z,3.65
2023-01-31T00:16:23.245Z,3.05
2023-01-31T00:18:50.646Z,3.58
2023-01-31T00:21:23.501Z,3.13
2023-01-31T00:23:51.329Z,2.95
2023-01-31T00:26:25.760Z,2.63
2023-01-31T00:28:54.996Z,3.00
2023-01-31T00:31:24.062Z,3.10
2023-01-31T00:33:52.433Z,3.17
2023-01-31T00:36:24.691Z,2.80
2023-01-31T00:38:54.083Z,3.40
2023-01-31T00:41:22.880Z,3.28
2023-01-31T00:43:50.717Z,3.50
2023-01-31T00:46:20.351Z,2.90
2023-01-31T00:48:47.342Z,4.03
2023-01-31T00:53:41.586Z,4.10
2023-01-31T00:56:14.419Z,3.00
2023-01-31T00:58:42.006Z,4.88
2023-01-31T01:03:43.617Z,3.35
2023-01-31T01:06:11.763Z,3.20
2023-01-31T01:08:40.284Z,3.00
2023-01-31T01:11:14.231Z,3.88
2023-01-31T01:13:41.720Z,3.30
2023-01-31T01:16:11.552Z,3.00
2023-01-31T01:18:38.871Z,3.45
2023-01-31T01:21:14.757Z,3.30
2023-01-31T01:23:42.968Z,3.55
2023-01-31T01:26:25.473Z,3.38
2023-01-31T01:28:53.413Z,3.17
2023-01-31T01:31:21.060Z,3.13
2023-01-31T01:33:49.357Z,4.30
2023-01-31T01:36:20.556Z,4.15
2023-01-31T01:38:48.564Z,4.25
2023-01-31T01:41:15.649Z,4.20
2023-01-31T01:43:57.826Z,4.35
2023-01-31T01:46:33.108Z,3.15
2023-01-31T01:49:13.032Z,3.83
2023-01-31T01:51:41.081Z,4.47
2023-01-31T01:54:13.478Z,3.65
2023-01-31T01:56:45.427Z,3.28
2023-01-31T01:59:36.949Z,3.75
2023-01-31T02:02:04.622Z,3.97
2023-01-31T02:04:36.980Z,3.83
2023-01-31T02:07:06.994Z,3.28
2023-01-31T02:09:48.811Z,3.72
2023-01-31T02:12:15.639Z,3.53
2023-01-31T02:14:42.951Z,4.57
2023-01-31T02:17:15.320Z,4.43
2023-01-31T02:20:15.325Z,4.07
2023-01-31T02:22:56.996Z,3.10
2023-01-31T02:26:04.584Z,3.67
2023-01-31T02:28:44.486Z,2.75
2023-01-31T02:31:47.739Z,4.75
2023-01-31T02:34:37.481Z,3.95
2023-01-31T02:37:08.782Z,3.72
2023-01-31T02:39:47.649Z,3.65
2023-01-31T02:42:38.853Z,3.35
2023-01-31T02:45:22.688Z,4.07
2023-01-31T02:48:13.326Z,3.15
2023-01-31T02:51:13.673Z,3.53
2023-01-31T02:53:49.572Z,6.27
2023-01-31T02:56:23.734Z,4.03
2023-01-31T02:59:10.422Z,3.50
2023-01-31T03:01:45.353Z,3.65
2023-01-31T03:04:14.198Z,3.20
2023-01-31T03:06:40.867Z,3.38
2023-01-31T03:09:10.097Z,3.17
2023-01-31T03:12:16.480Z,3.08
2023-01-31T03:15:05.879Z,3.10
2023-01-31T03:18:07.448Z,3.08
2023-01-31T03:20:44.136Z,3.35
2023-01-31T03:23:24.822Z,2.75
2023-01-31T03:25:52.464Z,4.07
2023-01-31T03:28:25.405Z,3.42
2023-01-31T03:31:04.137Z,3.33
2023-01-31T03:33:38.396Z,3.05
2023-01-31T03:36:30.227Z,4.03
2023-01-31T03:39:12.567Z,4.53
2023-01-31T03:41:57.504Z,4.68
2023-01-31T03:44:31.535Z,3.10
2023-01-31T03:47:06.946Z,4.38
2023-01-31T03:49:35.030Z,4.75
2023-01-31T03:52:08.427Z,4.45
2023-01-31T03:54:47.969Z,5.85
2023-01-31T03:57:20.589Z,4.82
2023-01-31T03:59:54.131Z,6.03
2023-01-31T04:02:25.116Z,4.88
2023-01-31T04:04:56.249Z,4.68
2023-01-31T04:07:23.967Z,5.25
2023-01-31T04:09:51.043Z,5.00
2023-01-31T04:12:17.982Z,4.53
2023-01-31T04:14:44.769Z,4.95
2023-01-31T04:17:11.971Z,4.35
2023-01-31T04:19:38.933Z,4.70
2023-01-31T04:22:05.723Z,4.75
2023-01-31T04:24:32.483Z,4.45
2023-01-31T04:26:59.232Z,4.25
2023-01-31T04:29:25.984Z,4.72
2023-01-31T04:31:52.791Z,4.85
2023-01-31T04:34:19.664Z,3.80
2023-01-31T04:36:46.579Z,4.38
2023-01-31T04:39:14.551Z,5.60
2023-01-31T04:41:41.420Z,4.47
2023-01-31T04:44:08.186Z,3.58
2023-01-31T04:46:34.982Z,4.00
2023-01-31T04:49:02.042Z,3.75
2023-01-31T04:53:55.654Z,3.70
2023-01-31T04:56:22.633Z,4.25
2023-01-31T04:58:49.381Z,4.60
2023-01-31T05:01:16.175Z,3.67
2023-01-31T05:03:43.016Z,3.97
2023-01-31T05:06:09.868Z,3.63
2023-01-31T05:08:36.752Z,4.32
2023-01-31T05:11:05.696Z,4.13
2023-01-31T05:13:33.436Z,4.22
2023-01-31T05:16:00.239Z,3.42
2023-01-31T05:18:27.200Z,3.50
2023-01-31T05:20:53.921Z,6.63
2023-01-31T05:23:21.051Z,3.55
2023-01-31T05:30:43.240Z,3.90
2023-01-31T05:33:11.176Z,4.25
2023-01-31T05:35:39.346Z,4.28
2023-01-31T05:38:10.065Z,3.63
2023-01-31T05:40:36.919Z,3.28
2023-01-31T05:43:03.999Z,3.78
2023-01-31T05:48:01.251Z,3.77
2023-01-31T05:50:31.127Z,5.20
2023-01-31T05:53:09.747Z,3.85
2023-01-31T05:55:37.123Z,3.30
2023-01-31T05:58:04.197Z,3.75
2023-01-31T06:00:31.203Z,4.00
2023-01-31T06:05:28.016Z,3.17
2023-01-31T06:07:55.643Z,4.30
2023-01-31T06:10:23.473Z,4.05
2023-01-31T06:12:50.641Z,4.65
2023-01-31T06:17:45.534Z,5.18
2023-01-31T06:22:40.872Z,4.63
2023-01-31T06:25:08.182Z,4.35
2023-01-31T06:27:35.273Z,4.85
2023-01-31T06:32:29.110Z,5.07
2023-01-31T06:34:58.635Z,5.95
2023-01-31T06:37:25.470Z,4.45
2023-01-31T06:39:52.270Z,4.88
2023-01-31T06:42:19.024Z,5.93
2023-01-31T06:44:45.799Z,6.35
2023-01-31T06:47:13.123Z,5.22
2023-01-31T06:49:39.876Z,6.90
2023-01-31T06:52:06.768Z,5.35
2023-01-31T06:54:33.566Z,5.15
2023-01-31T06:57:00.333Z,5.47
2023-01-31T06:59:27.109Z,7.03
2023-01-31T07:01:54.582Z,5.47
2023-01-31T07:04:21.493Z,5.55
2023-01-31T07:06:48.433Z,7.43
2023-01-31T07:09:15.333Z,6.45
2023-01-31T07:11:42.268Z,6.18
2023-01-31T07:14:08.989Z,5.97
2023-01-31T07:16:38.057Z,5.45
2023-01-31T07:19:05.090Z,5.78
2023-01-31T07:21:33.496Z,5.95
2023-01-31T07:24:00.324Z,6.68
2023-01-31T07:26:27.352Z,7.00
2023-01-31T07:31:21.233Z,7.85
2023-01-31T07:33:48.392Z,6.60
2023-01-31T07:36:16.710Z,8.30
2023-01-31T07:38:43.884Z,6.97
2023-01-31T07:43:38.673Z,7.85
2023-01-31T07:46:10.443Z,9.10
2023-01-31T07:48:37.675Z,9.23
2023-01-31T07:53:34.681Z,10.65
2023-01-31T07:56:19.619Z,10.20
2023-01-31T07:58:48.505Z,11.40
2023-01-31T08:01:42.906Z,12.20
2023-01-31T08:04:21.643Z,14.65
2023-01-31T08:06:53.629Z,12.35
2023-01-31T08:09:20.669Z,13.25
2023-01-31T08:11:47.731Z,13.07
2023-01-31T08:14:14.703Z,13.50
2023-01-31T08:16:41.549Z,11.95
2023-01-31T08:19:08.517Z,14.57
2023-01-31T08:21:35.392Z,14.43
2023-01-31T08:24:02.189Z,13.68
2023-01-31T08:26:29.394Z,16.48
2023-01-31T08:28:56.990Z,15.70
2023-01-31T08:31:26.078Z,15.45
2023-01-31T08:33:53.782Z,15.40
2023-01-31T08:36:29.703Z,14.65
2023-01-31T08:38:57.531Z,14.00
2023-01-31T08:41:26.381Z,16.83
2023-01-31T08:43:57.916Z,15.63
2023-01-31T08:46:30.857Z,15.82
2023-01-31T08:48:58.633Z,14.60
2023-01-31T08:51:26.010Z,13.45
2023-01-31T08:53:53.073Z,15.73
2023-01-31T08:56:21.476Z,13.02
2023-01-31T08:58:48.432Z,15.43
2023-01-31T09:01:17.500Z,12.88
2023-01-31T09:03:45.899Z,11.55
2023-01-31T09:06:16.144Z,12.85
2023-01-31T09:08:43.018Z,12.50
2023-01-31T09:11:09.793Z,10.57
2023-01-31T09:13:36.970Z,10.68
2023-01-31T09:16:05.494Z,10.05
2023-01-31T09:18:35.163Z,10.20
2023-01-31T09:21:06.397Z,11.98
2023-01-31T09:23:33.425Z,9.88
2023-01-31T09:26:00.313Z,9.70
2023-01-31T09:28:27.486Z,8.93
2023-01-31T09:33:22.776Z,7.95
2023-01-31T09:36:03.729Z,8.75
2023-01-31T09:38:31.076Z,9.60
2023-01-31T09:41:00.961Z,8.93
2023-01-31T09:43:44.436Z,8.52
2023-01-31T09:46:17.763Z,9.88
2023-01-31T09:48:49.900Z,8.32
2023-01-31T09:51:18.751Z,8.25
2023-01-31T09:53:46.260Z,8.95
2023-01-31T09:56:28.439Z,9.68
2023-01-31T09:59:18.668Z,9.10
2023-01-31T10:01:58.774Z,9.60
2023-01-31T10:04:40.543Z,8.73
2023-01-31T10:07:26.005Z,9.23
2023-01-31T10:10:00.304Z,9.65
2023-01-31T10:12:45.872Z,8.32
2023-01-31T10:15:59.026Z,7.70
2023-01-31T10:18:35.150Z,9.05
2023-01-31T10:21:12.380Z,8.40
2023-01-31T10:23:48.741Z,7.75
2023-01-31T10:26:23.658Z,8.70
2023-01-31T10:29:16.342Z,7.63
2023-01-31T10:31:58.357Z,8.90
2023-01-31T10:34:38.598Z,7.93
2023-01-31T10:37:19.542Z,11.25
2023-01-31T10:40:01.606Z,9.63
2023-01-31T10:42:37.640Z,7.32
2023-01-31T10:45:23.786Z,8.80
2023-01-31T10:47:50.532Z,8.07
2023-01-31T10:50:28.560Z,8.30
2023-01-31T10:53:31.700Z,8.40
2023-01-31T10:56:04.394Z,8.80
2023-01-31T10:58:31.431Z,8.02
2023-01-31T11:00:58.769Z,8.25
2023-01-31T11:03:26.170Z,6.32
2023-01-31T11:06:04.651Z,7.95
2023-01-31T11:08:36.364Z,7.50
2023-01-31T11:11:12.569Z,8.55
2023-01-31T11:13:39.955Z,7.60
2023-01-31T11:16:11.048Z,7.03
2023-01-31T11:18:47.355Z,6.85
2023-01-31T11:21:29.752Z,7.90
2023-01-31T11:24:30.856Z,7.18
2023-01-31T11:27:07.155Z,6.30
2023-01-31T11:29:38.191Z,6.60
2023-01-31T11:32:22.766Z,8.23
2023-01-31T11:34:59.253Z,5.70
2023-01-31T11:37:26.999Z,7.28
2023-01-31T11:40:19.931Z,6.72
2023-01-31T11:42:55.670Z,6.28
2023-01-31T11:45:27.602Z,6.95
2023-01-31T11:47:58.257Z,7.20
2023-01-31T11:50:39.068Z,6.45
2023-01-31T11:53:49.825Z,6.10
2023-01-31T11:56:30.849Z,7.32
2023-01-31T11:59:04.327Z,6.63
2023-01-31T12:01:32.015Z,6.32
2023-01-31T12:04:06.614Z,6.85
2023-01-31T12:06:40.818Z,6.22
2023-01-31T12:09:25.498Z,7.15
2023-01-31T12:11:54.048Z,7.22
2023-01-31T12:14:21.166Z,6.72
2023-01-31T12:19:31.791Z,6.75
2023-01-31T12:22:09.382Z,7.78
2023-01-31T12:24:45.368Z,6.95
2023-01-31T12:27:27.848Z,7.07
2023-01-31T12:30:06.680Z,6.90
2023-01-31T12:33:02.919Z,8.30
2023-01-31T12:35:46.908Z,7.95
2023-01-31T12:38:25.758Z,7.55
2023-01-31T12:41:00.859Z,8.23
2023-01-31T12:44:00.975Z,7.35
2023-01-31T12:46:34.080Z,7.50
2023-01-31T12:49:13.137Z,7.25
2023-01-31T12:51:59.512Z,7.80
2023-01-31T12:54:53.992Z,7.72
2023-01-31T12:57:35.888Z,8.13
2023-01-31T13:00:25.890Z,7.90
2023-01-31T13:03:01.884Z,8.48
2023-01-31T13:05:48.565Z,6.80
2023-01-31T13:08:30.655Z,6.72
2023-01-31T13:11:05.172Z,8.55
2023-01-31T13:13:47.612Z,7.63
2023-01-31T13:16:26.259Z,7.72
2023-01-31T13:18:58.464Z,7.65
2023-01-31T13:21:29.636Z,8.63
2023-01-31T13:24:11.417Z,8.20
2023-01-31T13:26:53.535Z,8.10
2023-01-31T13:29:35.363Z,7.75
2023-01-31T13:32:12.914Z,7.32
2023-01-31T13:35:03.905Z,7.03
2023-01-31T13:37:36.184Z,8.75
2023-01-31T13:40:25.102Z,7.07
2023-01-31T13:42:55.697Z,9.48
2023-01-31T13:45:27.833Z,7.88
2023-01-31T13:48:05.834Z,7.50
2023-01-31T13:50:42.358Z,7.00
2023-01-31T13:53:22.970Z,7.45
2023-01-31T13:55:51.140Z,7.50
2023-01-31T13:58:28.356Z,7.25
2023-01-31T14:01:14.040Z,7.93
2023-01-31T14:04:15.184Z,7.53
2023-01-31T14:06:55.423Z,8.75
2023-01-31T14:09:29.558Z,7.97
2023-01-31T14:11:58.525Z,7.97
2023-01-31T14:14:41.889Z,7.47
2023-01-31T14:17:14.048Z,8.20
2023-01-31T14:19:43.871Z,7.35
2023-01-31T14:22:24.837Z,8.43
2023-01-31T14:25:00.416Z,8.70
2023-01-31T14:27:32.418Z,8.35
2023-01-31T14:30:08.411Z,7.85
2023-01-31T14:32:35.313Z,8.43
2023-01-31T14:35:19.548Z,7.45
2023-01-31T14:37:58.268Z,7.43
2023-01-31T14:40:45.738Z,8.02
2023-01-31T14:43:25.243Z,8.63
2023-01-31T14:46:03.164Z,9.82
2023-01-31T14:49:00.323Z,9.18
2023-01-31T14:51:39.321Z,8.93
2023-01-31T14:54:24.568Z,10.68
2023-01-31T14:57:11.035Z,9.98
2023-01-31T14:59:45.479Z,12.48
2023-01-31T15:02:31.425Z,9.07
2023-01-31T15:05:06.427Z,10.38
2023-01-31T15:07:33.561Z,10.15
2023-01-31T15:12:53.831Z,9.82
2023-01-31T15:15:37.534Z,13.57
2023-01-31T15:18:20.108Z,10.80
2023-01-31T15:20:52.527Z,11.95
2023-01-31T15:23:28.889Z,11.55
2023-01-31T15:25:58.678Z,12.65
2023-01-31T15:28:33.701Z,11.38
2023-01-31T15:31:06.276Z,11.10
2023-01-31T15:33:38.052Z,10.13
2023-01-31T15:36:09.763Z,11.65
2023-01-31T15:38:58.879Z,10.18
2023-01-31T15:41:36.091Z,10.75
2023-01-31T15:44:23.714Z,8.55
2023-01-31T15:46:53.044Z,11.88
2023-01-31T15:49:43.073Z,7.55
2023-01-31T15:52:16.647Z,8.70
2023-01-31T15:54:53.590Z,9.45
2023-01-31T15:57:22.871Z,8.70
2023-01-31T15:59:49.771Z,7.80
2023-01-31T16:02:34.601Z,8.23
2023-01-31T16:05:04.688Z,8.73
2023-01-31T16:07:31.918Z,9.50
2023-01-31T16:10:01.975Z,8.23
2023-01-31T16:12:31.276Z,7.63
2023-01-31T16:15:02.883Z,8.18
2023-01-31T16:17:29.851Z,8.55
2023-01-31T16:19:56.736Z,8.25
2023-01-31T16:22:30.743Z,6.90
2023-01-31T16:25:00.174Z,7.40
2023-01-31T16:27:36.975Z,7.38
2023-01-31T16:30:04.589Z,7.13
2023-01-31T16:32:33.730Z,8.18
2023-01-31T16:35:18.819Z,6.82
2023-01-31T16:37:46.541Z,6.47
2023-01-31T16:40:23.703Z,7.60
2023-01-31T16:42:50.695Z,7.28
2023-01-31T16:47:56.472Z,6.60
2023-01-31T16:50:41.968Z,5.70
2023-01-31T16:53:30.489Z,5.40
2023-01-31T16:56:18.122Z,5.50
2023-01-31T16:58:46.478Z,5.05
2023-01-31T17:01:17.056Z,5.32
2023-01-31T17:03:44.196Z,5.90
2023-01-31T17:08:46.200Z,4.60
2023-01-31T17:11:16.624Z,4.03
2023-01-31T17:13:50.463Z,4.22
2023-01-31T17:16:25.690Z,4.68
2023-01-31T17:18:53.516Z,4.82
2023-01-31T17:21:24.958Z,4.43
2023-01-31T17:23:51.721Z,4.13
2023-01-31T17:26:21.087Z,3.55
2023-01-31T17:29:00.794Z,3.58
2023-01-31T17:31:29.786Z,3.55
2023-01-31T17:33:56.768Z,3.40
2023-01-31T17:36:24.051Z,3.25
2023-01-31T17:38:52.685Z,3.30
2023-01-31T17:41:21.503Z,2.60
2023-01-31T17:43:48.264Z,2.58
2023-01-31T17:46:17.786Z,2.85
2023-01-31T17:48:44.699Z,3.20
2023-01-31T17:51:12.121Z,3.53
2023-01-31T17:53:47.825Z,4.28
2023-01-31T17:56:17.710Z,4.75
2023-01-31T17:58:44.704Z,4.25
2023-01-31T18:01:13.936Z,4.40
2023-01-31T18:03:41.255Z,3.97
2023-01-31T18:06:09.318Z,3.25
2023-01-31T18:08:36.708Z,4.28
2023-01-31T18:11:09.569Z,4.03
2023-01-31T18:13:38.419Z,4.10
2023-01-31T18:16:08.421Z,4.15
2023-01-31T18:18:36.615Z,4.68
2023-01-31T18:21:05.369Z,3.50
2023-01-31T18:23:32.475Z,2.83
2023-01-31T18:28:26.290Z,3.30
2023-01-31T18:30:53.198Z,3.05
2023-01-31T18:33:20.122Z,3.30
2023-01-31T18:35:56.763Z,4.88
2023-01-31T18:38:23.765Z,4.57
2023-01-31T18:43:17.331Z,2.33
2023-01-31T18:45:44.036Z,2.25
2023-01-31T18:48:10.860Z,2.35
2023-01-31T18:50:37.903Z,2.75
2023-01-31T18:55:31.692Z,2.10
2023-01-31T18:57:58.508Z,2.00
2023-01-31T19:00:25.451Z,2.60
2023-01-31T19:02:54.279Z,2.25
2023-01-31T19:05:23.507Z,1.85
2023-01-31T19:07:50.697Z,1.77
2023-01-31T19:10:17.671Z,2.28
2023-01-31T19:15:12.553Z,1.77
2023-01-31T19:17:39.344Z,1.30
2023-01-31T19:20:06.659Z,1.77
2023-01-31T19:22:33.416Z,2.28
2023-01-31T19:25:00.293Z,1.70
2023-01-31T19:27:27.139Z,1.83
2023-01-31T19:29:53.789Z,1.85
2023-01-31T19:32:22.369Z,1.90
2023-01-31T19:34:49.147Z,1.58
2023-01-31T19:37:15.864Z,1.42
2023-01-31T19:39:42.533Z,1.63
2023-01-31T19:42:09.356Z,1.88
2023-01-31T19:44:36.090Z,1.73
2023-01-31T19:47:02.874Z,1.92
2023-01-31T19:49:29.609Z,2.30
2023-01-31T19:51:56.299Z,1.70
2023-01-31T19:54:23.200Z,1.92
2023-01-31T19:59:16.872Z,3.15
2023-01-31T20:01:43.654Z,1.85
2023-01-31T20:04:10.345Z,1.65
2023-01-31T20:06:37.135Z,2.03
2023-01-31T20:09:08.032Z,1.92
2023-01-31T20:11:36.578Z,1.85
2023-01-31T20:14:04.436Z,2.15
2023-01-31T20:16:31.234Z,1.83
2023-01-31T20:19:00.689Z,2.00
2023-01-31T20:21:27.598Z,2.17
2023-01-31T20:23:54.388Z,1.92
2023-01-31T20:26:23.971Z,2.45
2023-01-31T20:28:51.261Z,1.85
2023-01-31T20:31:18.605Z,1.88
2023-01-31T20:33:45.441Z,1.92
2023-01-31T20:36:14.030Z,2.22
2023-01-31T20:38:41.106Z,1.85
2023-01-31T20:41:08.969Z,1.92
2023-01-31T20:43:36.778Z,3.00
2023-01-31T20:46:09.217Z,1.70
2023-01-31T20:48:36.685Z,1.58
2023-01-31T20:51:03.595Z,2.25
2023-01-31T20:53:32.509Z,2.10
2023-01-31T20:56:01.918Z,1.58
2023-01-31T20:58:31.016Z,1.48
2023-01-31T21:00:59.765Z,3.17
2023-01-31T21:03:27.942Z,1.80
2023-01-31T21:05:56.745Z,1.58
2023-01-31T21:08:23.553Z,1.77
2023-01-31T21:10:53.188Z,1.98
2023-01-31T21:13:21.186Z,1.70
2023-01-31T21:15:55.003Z,1.95
2023-01-31T21:18:24.832Z,1.67
2023-01-31T21:20:52.058Z,2.10
2023-01-31T21:23:18.764Z,1.88
2023-01-31T21:25:45.616Z,1.33
2023-01-31T21:28:12.374Z,1.48
2023-01-31T21:30:39.221Z,2.20
2023-01-31T21:33:06.326Z,1.63
2023-01-31T21:35:33.296Z,1.90
2023-01-31T21:38:00.071Z,1.60
2023-01-31T21:40:26.931Z,1.73
2023-01-31T21:42:54.620Z,1.38
2023-01-31T21:45:39.374Z,1.60
2023-01-31T21:48:26.470Z,1.27
2023-01-31T21:50:53.317Z,1.40
2023-01-31T21:53:20.265Z,1.33
2023-01-31T21:55:47.232Z,1.30
2023-01-31T21:58:14.033Z,1.65
2023-01-31T22:00:43.802Z,1.05
2023-01-31T22:03:11.011Z,1.67
2023-01-31T22:08:04.672Z,1.70
2023-01-31T22:10:31.547Z,1.38
2023-01-31T22:12:58.342Z,1.20
2023-01-31T22:15:25.167Z,1.52
2023-01-31T22:17:52.760Z,1.58
2023-01-31T22:20:19.729Z,1.80
2023-01-31T22:25:15.330Z,1.80
2023-01-31T22:27:42.148Z,1.70
2023-01-31T22:30:16.208Z,1.52
2023-01-31T22:32:54.307Z,1.67
2023-01-31T22:35:21.142Z,2.40
2023-01-31T22:37:47.947Z,2.00
2023-01-31T22:40:14.814Z,2.13
2023-01-31T22:42:41.721Z,1.77
2023-01-31T22:45:08.891Z,2.35
2023-01-31T22:47:35.668Z,1.80
2023-01-31T22:50:02.622Z,2.72
2023-01-31T22:52:29.573Z,3.10
2023-01-31T22:54:56.262Z,4.45
2023-01-31T22:57:23.792Z,3.95
2023-01-31T22:59:50.477Z,3.58
2023-01-31T23:02:17.295Z,3.47
2023-01-31T23:04:44.172Z,3.45
2023-01-31T23:07:10.966Z,4.38
2023-01-31T23:09:37.763Z,3.88
2023-01-31T23:12:04.798Z,3.67
2023-01-31T23:17:16.758Z,4.05
2023-01-31T23:19:43.521Z,4.55
2023-01-31T23:22:10.274Z,5.10
2023-01-31T23:24:37.211Z,5.45
2023-01-31T23:27:03.943Z,5.20
2023-01-31T23:29:30.700Z,3.88
2023-01-31T23:31:57.592Z,3.95
2023-01-31T23:34:24.454Z,3.53
2023-01-31T23:36:51.153Z,3.03
2023-01-31T23:39:18.086Z,3.60
2023-01-31T23:41:44.808Z,3.20
2023-01-31T23:44:11.685Z,3.85
2023-01-31T23:46:38.504Z,2.75
2023-01-31T23:49:05.395Z,3.10
2023-01-31T23:51:33.712Z,3.70
2023-01-31T23:54:00.638Z,3.50
2023-01-31T23:56:27.720Z,3.70
